Time;durP1;ratioP1;P1;durP2;ratioP2;P2;SDS_P1;SDS_P2;PMS_P1;PMS_P2;Temp;Humidity;BMP_temperature;BMP_pressure;BME280_temperature;BME280_humidity;BME280_pressure;Samples;Min_cycle;Max_cycle;Signal;HPM_P1;HPM_P2
2021/01/04 00:01:47;;;;;;;6.30;5.70;;;6.60;99.90;;;;;;5036683;28;20200;-86
2021/01/04 00:04:36;;;;;;;6.07;5.50;;;6.60;99.90;;;;;;5036762;28;20180;-86
2021/01/04 00:07:16;;;;;;;6.55;5.88;;;6.60;99.90;;;;;;5036314;28;20204;-86
2021/01/04 00:09:58;;;;;;;6.50;5.90;;;6.70;99.90;;;;;;5036224;28;20196;-86
2021/01/04 00:12:30;;;;;;;5.70;5.20;;;6.70;99.90;;;;;;5036090;28;20663;-86
2021/01/04 00:15:04;;;;;;;5.57;4.72;;;6.70;99.90;;;;;;5036244;28;20200;-86
2021/01/04 00:17:55;;;;;;;6.78;5.72;;;6.70;99.90;;;;;;5035974;28;20245;-86
2021/01/04 00:20:32;;;;;;;7.03;6.32;;;6.80;99.90;;;;;;5036071;28;20195;-86
2021/01/04 00:23:05;;;;;;;6.32;5.32;;;6.70;99.90;;;;;;5035953;28;20238;-86
2021/01/04 00:25:45;;;;;;;6.15;5.65;;;6.60;99.90;;;;;;5035913;28;20201;-85
2021/01/04 00:28:16;;;;;;;6.88;5.60;;;6.70;99.90;;;;;;5036022;28;20195;-86
2021/01/04 00:30:58;;;;;;;5.07;4.57;;;6.70;99.90;;;;;;5035501;28;20196;-86
2021/01/04 00:33:30;;;;;;;5.20;4.80;;;6.60;99.90;;;;;;5035584;28;20243;-86
2021/01/04 00:35:59;;;;;;;6.07;5.47;;;6.60;99.90;;;;;;5035793;28;20215;-86
2021/01/04 00:39:01;;;;;;;6.10;5.50;;;6.70;99.90;;;;;;5035639;28;20195;-86
2021/01/04 00:41:40;;;;;;;5.03;4.40;;;6.70;99.90;;;;;;5035360;28;20214;-86
2021/01/04 00:44:14;;;;;;;5.68;5.07;;;6.70;99.90;;;;;;5035311;28;20642;-85
2021/01/04 00:46:46;;;;;;;5.72;5.13;;;6.80;99.90;;;;;;5035538;28;20202;-87
2021/01/04 00:49:19;;;;;;;4.80;4.40;;;6.80;99.90;;;;;;5035434;28;20195;-86
2021/01/04 00:51:54;;;;;;;5.97;5.47;;;6.80;99.90;;;;;;5035529;28;20202;-86
2021/01/04 00:54:35;;;;;;;5.65;5.15;;;6.90;99.90;;;;;;5035348;28;20218;-86
2021/01/04 00:57:15;;;;;;;5.28;4.82;;;7.00;99.90;;;;;;5035527;28;20203;-86
2021/01/04 01:00:01;;;;;;;5.53;4.97;;;6.90;99.90;;;;;;5035350;28;20200;-86
2021/01/04 01:02:53;;;;;;;5.78;5.25;;;6.80;99.90;;;;;;5035157;28;20215;-86
2021/01/04 01:05:28;;;;;;;7.25;5.70;;;6.60;99.90;;;;;;5035216;28;20258;-86
2021/01/04 01:08:12;;;;;;;6.03;5.45;;;6.70;99.90;;;;;;5035233;28;20550;-86
2021/01/04 01:10:41;;;;;;;6.30;5.07;;;6.80;99.90;;;;;;5035350;28;20539;-86
2021/01/04 01:13:21;;;;;;;5.75;5.20;;;6.80;99.90;;;;;;5034971;28;20221;-86
2021/01/04 01:16:03;;;;;;;7.35;5.50;;;6.80;99.90;;;;;;5035136;28;20242;-86
2021/01/04 01:18:33;;;;;;;6.88;6.18;;;6.70;99.90;;;;;;5035008;28;20639;-86
2021/01/04 01:21:04;;;;;;;5.88;5.28;;;6.70;99.90;;;;;;5035105;28;20206;-86
2021/01/04 01:23:30;;;;;;;8.32;6.80;;;6.80;99.90;;;;;;5034839;28;20207;-86
2021/01/04 01:26:20;;;;;;;7.03;6.00;;;6.80;99.90;;;;;;5034846;28;20200;-86
2021/01/04 01:29:28;;;;;;;6.15;5.55;;;6.70;99.90;;;;;;5034897;28;20192;-86
2021/01/04 01:32:05;;;;;;;5.80;5.30;;;6.70;99.90;;;;;;5034482;28;20196;-86
2021/01/04 01:34:50;;;;;;;7.63;6.35;;;6.70;99.90;;;;;;5034658;28;20227;-86
2021/01/04 01:37:39;;;;;;;6.25;5.43;;;6.60;99.90;;;;;;5034739;28;20198;-87
2021/01/04 01:40:43;;;;;;;7.25;6.38;;;6.60;99.90;;;;;;5034703;28;20219;-86
2021/01/04 01:43:36;;;;;;;6.97;6.30;;;6.70;99.90;;;;;;5034534;28;20195;-86
2021/01/04 01:46:08;;;;;;;7.25;6.53;;;6.60;99.90;;;;;;5034332;28;20188;-86
2021/01/04 01:48:53;;;;;;;8.65;7.75;;;6.40;99.90;;;;;;5034431;28;20204;-87
2021/01/04 01:51:34;;;;;;;7.90;7.07;;;6.40;99.90;;;;;;5034484;28;20184;-86
2021/01/04 01:54:16;;;;;;;10.07;7.97;;;6.40;99.90;;;;;;5033834;28;20231;-86
2021/01/04 01:56:57;;;;;;;6.70;6.10;;;6.50;99.90;;;;;;5034278;28;20210;-86
2021/01/04 01:59:45;;;;;;;7.15;6.45;;;6.40;99.90;;;;;;5034257;28;20222;-87
2021/01/04 02:02:18;;;;;;;7.95;7.18;;;6.40;99.90;;;;;;5034170;28;20196;-87
2021/01/04 02:04:53;;;;;;;8.20;7.40;;;6.40;99.90;;;;;;5034217;28;20568;-86
2021/01/04 02:07:30;;;;;;;10.25;7.10;;;6.50;99.90;;;;;;5034079;28;20195;-86
2021/01/04 02:10:02;;;;;;;6.53;5.70;;;6.50;99.90;;;;;;5034084;28;20210;-87
2021/01/04 02:12:37;;;;;;;8.27;7.47;;;6.60;99.90;;;;;;5034122;28;20551;-86
2021/01/04 02:15:10;;;;;;;7.95;6.55;;;6.50;99.90;;;;;;5034111;28;20541;-87
2021/01/04 02:18:00;;;;;;;7.35;6.65;;;6.50;99.90;;;;;;5033773;28;20195;-86
2021/01/04 02:21:02;;;;;;;7.80;7.00;;;6.60;99.90;;;;;;5033901;28;20195;-87
2021/01/04 02:23:36;;;;;;;6.72;6.10;;;6.60;99.90;;;;;;5033676;28;20204;-86
2021/01/04 02:26:09;;;;;;;7.25;6.55;;;6.70;99.90;;;;;;5033735;28;20198;-86
2021/01/04 02:28:47;;;;;;;8.10;6.63;;;6.70;99.90;;;;;;5033755;28;20606;-86
2021/01/04 02:31:13;;;;;;;5.55;5.05;;;6.40;99.90;;;;;;5034103;28;20180;-86
2021/01/04 02:33:39;;;;;;;7.60;6.80;;;6.40;99.90;;;;;;5033286;28;20247;-86
2021/01/04 02:36:06;;;;;;;6.70;6.10;;;6.60;99.90;;;;;;5033423;28;20281;-86
2021/01/04 02:38:38;;;;;;;6.97;6.28;;;6.60;99.90;;;;;;5033669;28;20199;-86
2021/01/04 02:41:05;;;;;;;6.68;6.07;;;6.70;99.90;;;;;;5033510;28;20206;-86
2021/01/04 02:43:32;;;;;;;7.57;6.82;;;6.60;99.90;;;;;;5033379;28;20655;-87
2021/01/04 02:46:05;;;;;;;7.10;6.45;;;6.60;99.90;;;;;;5033307;28;20195;-86
2021/01/04 02:48:45;;;;;;;7.95;7.18;;;6.50;99.90;;;;;;5033640;28;20203;-86
2021/01/04 02:51:15;;;;;;;7.18;6.57;;;6.50;99.90;;;;;;5033489;28;20199;-86
2021/01/04 02:54:08;;;;;;;10.25;6.65;;;6.40;99.90;;;;;;5033279;28;20232;-86
2021/01/04 02:56:52;;;;;;;7.57;6.88;;;6.50;99.90;;;;;;5029841;28;20226;-87
2021/01/04 02:59:49;;;;;;;7.05;6.40;;;6.50;99.90;;;;;;5033063;28;20195;-87
2021/01/04 03:02:28;;;;;;;6.90;6.30;;;6.50;99.90;;;;;;5033096;28;20206;-86
2021/01/04 03:04:54;;;;;;;11.93;6.20;;;6.50;99.90;;;;;;5032835;28;20223;-86
2021/01/04 03:07:24;;;;;;;7.47;6.45;;;6.30;99.90;;;;;;5033068;28;20203;-86
2021/01/04 03:09:52;;;;;;;8.30;7.50;;;6.40;99.90;;;;;;5033254;28;20202;-87
2021/01/04 03:12:22;;;;;;;7.95;7.15;;;6.30;99.90;;;;;;5033158;28;20206;-86
2021/01/04 03:15:10;;;;;;;8.27;6.82;;;6.30;99.90;;;;;;5033002;28;20246;-86
2021/01/04 03:17:47;;;;;;;6.95;6.28;;;6.40;99.90;;;;;;5033121;28;20651;-87
2021/01/04 03:20:17;;;;;;;8.00;7.20;;;6.40;99.90;;;;;;5033180;28;20221;-86
2021/01/04 03:22:45;;;;;;;7.78;6.97;;;6.30;99.90;;;;;;5032902;28;20191;-86
2021/01/04 03:25:19;;;;;;;7.03;6.35;;;6.30;99.90;;;;;;5033040;28;20192;-87
2021/01/04 03:27:47;;;;;;;7.80;6.38;;;6.40;99.90;;;;;;5032820;28;20673;-86
2021/01/04 03:30:14;;;;;;;7.13;6.40;;;6.30;99.90;;;;;;5032909;28;20245;-86
2021/01/04 03:32:41;;;;;;;7.53;6.75;;;6.30;99.90;;;;;;5032670;28;20227;-86
2021/01/04 03:35:08;;;;;;;7.95;7.15;;;6.30;99.90;;;;;;5032768;28;20697;-86
2021/01/04 03:37:35;;;;;;;6.55;5.95;;;6.50;99.90;;;;;;5032972;28;20230;-87
2021/01/04 03:40:01;;;;;;;7.50;6.70;;;6.50;99.90;;;;;;5033110;28;20562;-86
2021/01/04 03:42:27;;;;;;;7.00;6.40;;;6.50;99.90;;;;;;5032782;28;20203;-86
2021/01/04 03:44:54;;;;;;;7.07;6.43;;;6.50;99.90;;;;;;5033048;28;20203;-86
2021/01/04 03:47:20;;;;;;;7.35;6.55;;;6.60;99.90;;;;;;5032907;28;20196;-86
2021/01/04 03:49:47;;;;;;;7.30;6.60;;;6.70;99.90;;;;;;5032762;28;20673;-86
2021/01/04 03:52:13;;;;;;;7.38;6.68;;;6.70;99.90;;;;;;5032638;28;20192;-86
2021/01/04 03:54:41;;;;;;;6.40;5.80;;;6.70;99.90;;;;;;5032649;28;20228;-86
2021/01/04 03:57:08;;;;;;;9.05;6.57;;;6.70;99.90;;;;;;5032656;28;20191;-86
2021/01/04 03:59:34;;;;;;;6.60;6.00;;;6.70;99.90;;;;;;5032647;28;20203;-86
2021/01/04 04:02:01;;;;;;;6.82;6.20;;;6.80;99.90;;;;;;5032569;28;20191;-86
2021/01/04 04:04:28;;;;;;;6.85;5.95;;;6.80;99.90;;;;;;5032569;28;20192;-86
2021/01/04 04:06:54;;;;;;;9.05;6.82;;;6.80;99.90;;;;;;5032630;28;20206;-86
2021/01/04 04:09:22;;;;;;;6.63;6.00;;;6.80;99.90;;;;;;5032797;28;20203;-86
2021/01/04 04:11:48;;;;;;;7.70;7.00;;;6.90;99.90;;;;;;5032602;28;20204;-86
2021/01/04 04:14:15;;;;;;;6.60;5.93;;;6.90;99.90;;;;;;5032452;28;20219;-86
2021/01/04 04:16:42;;;;;;;5.65;5.15;;;6.90;99.90;;;;;;5033283;28;20663;-86
2021/01/04 04:19:10;;;;;;;6.93;6.10;;;6.80;99.90;;;;;;5036244;28;20608;-86
2021/01/04 04:21:36;;;;;;;6.90;6.30;;;6.70;99.90;;;;;;5035925;28;20252;-86
2021/01/04 04:24:03;;;;;;;5.95;5.45;;;6.70;99.90;;;;;;5035992;28;20195;-86
2021/01/04 04:26:30;;;;;;;6.70;6.03;;;6.80;99.90;;;;;;5035802;28;20200;-86
2021/01/04 04:28:57;;;;;;;5.80;5.30;;;6.80;99.90;;;;;;5035869;28;20567;-86
2021/01/04 04:31:24;;;;;;;6.57;5.97;;;6.90;99.90;;;;;;5035848;28;20188;-86
2021/01/04 04:33:50;;;;;;;6.40;5.78;;;6.90;99.90;;;;;;5035367;28;20235;-86
2021/01/04 04:36:19;;;;;;;6.93;6.22;;;6.80;99.90;;;;;;5035642;28;20682;-86
2021/01/04 04:38:46;;;;;;;6.72;6.03;;;6.90;99.90;;;;;;5035713;28;20200;-86
2021/01/04 04:41:21;;;;;;;5.78;5.20;;;6.90;99.90;;;;;;5035607;28;20200;-86
2021/01/04 04:43:51;;;;;;;6.43;5.80;;;6.90;99.90;;;;;;5035632;28;20215;-86
2021/01/04 04:46:28;;;;;;;7.45;6.75;;;6.80;99.90;;;;;;5035629;28;20191;-86
2021/01/04 04:48:58;;;;;;;6.43;5.72;;;6.70;99.90;;;;;;5035499;28;20188;-86
2021/01/04 04:51:34;;;;;;;7.28;6.57;;;6.70;99.90;;;;;;5035590;28;20196;-86
2021/01/04 04:54:23;;;;;;;7.60;6.30;;;6.60;99.90;;;;;;5035477;28;20231;-86
2021/01/04 04:57:14;;;;;;;7.10;6.40;;;6.60;99.90;;;;;;5019403;28;20663;-86
2021/01/04 05:00:01;;;;;;;6.10;5.60;;;6.40;99.90;;;;;;5035459;28;20662;-86
2021/01/04 05:02:38;;;;;;;6.32;5.80;;;6.40;99.90;;;;;;5035263;28;20196;-86
2021/01/04 05:05:18;;;;;;;6.97;5.90;;;6.40;99.90;;;;;;5035205;28;20223;-86
2021/01/04 05:07:55;;;;;;;6.65;6.03;;;6.40;99.90;;;;;;5035167;28;20195;-86
2021/01/04 05:10:24;;;;;;;6.70;6.07;;;6.50;99.90;;;;;;5035236;28;20201;-86
2021/01/04 05:13:02;;;;;;;6.50;5.90;;;6.60;99.90;;;;;;5035052;28;20531;-86
2021/01/04 05:15:49;;;;;;;7.25;6.43;;;6.50;99.90;;;;;;5035061;28;20563;-86
2021/01/04 05:18:49;;;;;;;6.88;6.00;;;6.70;99.90;;;;;;5034848;28;20225;-86
2021/01/04 05:21:53;;;;;;;6.70;6.05;;;6.80;99.90;;;;;;5017355;28;20196;-86
2021/01/04 05:24:53;;;;;;;5.47;4.97;;;6.80;99.90;;;;;;5034940;28;20199;-86
2021/01/04 05:27:41;;;;;;;7.10;6.43;;;6.90;99.90;;;;;;5019881;28;20639;-86
2021/01/04 05:30:26;;;;;;;6.78;6.18;;;6.80;99.90;;;;;;5034385;28;20206;-86
2021/01/04 05:33:26;;;;;;;6.50;5.90;;;6.80;99.90;;;;;;5034412;28;20234;-86
2021/01/04 05:36:04;;;;;;;5.82;5.20;;;6.80;99.90;;;;;;4995700;28;20248;-86
2021/01/04 05:38:41;;;;;;;6.70;6.07;;;6.70;99.90;;;;;;5034741;28;20195;-86
2021/01/04 05:41:21;;;;;;;7.03;6.43;;;6.80;99.90;;;;;;5034587;28;20688;-85
2021/01/04 05:43:59;;;;;;;6.45;5.90;;;6.70;99.90;;;;;;5034511;28;20251;-86
2021/01/04 05:46:32;;;;;;;7.72;6.82;;;6.80;99.90;;;;;;5034429;28;20206;-86
2021/01/04 05:49:08;;;;;;;7.20;6.55;;;6.70;99.90;;;;;;5034484;28;20199;-86
2021/01/04 05:51:38;;;;;;;6.90;6.20;;;6.70;99.90;;;;;;5034462;28;20195;-86
2021/01/04 05:54:05;;;;;;;7.85;7.15;;;6.80;99.90;;;;;;5034324;28;20577;-86
2021/01/04 05:56:33;;;;;;;7.03;6.43;;;6.80;99.90;;;;;;5034333;28;20269;-86
2021/01/04 05:59:10;;;;;;;6.32;5.72;;;6.80;99.90;;;;;;5034341;28;20659;-86
2021/01/04 06:01:38;;;;;;;7.47;6.78;;;6.90;99.90;;;;;;5034087;28;20196;-86
2021/01/04 06:04:07;;;;;;;7.60;6.82;;;6.90;99.90;;;;;;5034376;28;20203;-86
2021/01/04 06:06:45;;;;;;;6.45;5.85;;;6.90;99.90;;;;;;5033906;28;20210;-86
2021/01/04 06:09:15;;;;;;;6.63;6.00;;;6.80;99.90;;;;;;5033991;28;20249;-86
2021/01/04 06:11:52;;;;;;;7.60;6.50;;;6.80;99.90;;;;;;5034125;28;20682;-86
2021/01/04 06:14:18;;;;;;;8.05;7.20;;;6.80;99.90;;;;;;5033863;28;20215;-86
2021/01/04 06:16:46;;;;;;;6.60;5.85;;;6.80;99.90;;;;;;5033878;28;20215;-86
2021/01/04 06:19:16;;;;;;;7.18;6.47;;;6.80;99.90;;;;;;5034141;28;20191;-86
2021/01/04 06:21:46;;;;;;;7.18;6.55;;;6.90;99.90;;;;;;5034413;28;20581;-86
2021/01/04 06:24:30;;;;;;;7.07;6.38;;;6.90;99.90;;;;;;5033925;28;20203;-86
2021/01/04 06:27:00;;;;;;;7.38;6.68;;;6.90;99.90;;;;;;5033729;28;20200;-86
2021/01/04 06:29:36;;;;;;;6.10;5.53;;;7.00;99.90;;;;;;5033636;28;20253;-86
2021/01/04 06:32:05;;;;;;;7.53;6.82;;;7.00;99.90;;;;;;5033261;28;20226;-85
2021/01/04 06:34:34;;;;;;;6.55;5.75;;;7.00;99.90;;;;;;5033649;28;20231;-86
2021/01/04 06:37:08;;;;;;;7.00;6.30;;;6.80;99.90;;;;;;5033550;28;20729;-86
2021/01/04 06:39:35;;;;;;;8.20;6.22;;;6.90;99.90;;;;;;5032896;28;20192;-86
2021/01/04 06:42:14;;;;;;;6.40;5.80;;;6.90;99.90;;;;;;5032896;28;20195;-86
2021/01/04 06:44:43;;;;;;;9.82;7.32;;;6.80;99.90;;;;;;5033599;28;20199;-86
2021/01/04 06:47:26;;;;;;;6.10;5.50;;;6.80;99.90;;;;;;5033247;28;20672;-86
2021/01/04 06:50:00;;;;;;;6.30;5.70;;;6.80;99.90;;;;;;5033439;28;20195;-86
2021/01/04 06:53:06;;;;;;;7.50;6.72;;;6.80;99.90;;;;;;5033269;28;20655;-86
2021/01/04 06:56:03;;;;;;;6.75;6.15;;;6.80;99.90;;;;;;5033341;28;20199;-86
2021/01/04 06:58:54;;;;;;;6.32;5.72;;;7.00;99.90;;;;;;5033253;28;20196;-85
2021/01/04 07:01:51;;;;;;;6.82;6.13;;;7.00;99.90;;;;;;5033171;28;20226;-86
2021/01/04 07:04:33;;;;;;;7.25;6.55;;;6.80;99.90;;;;;;5024267;28;20202;-86
2021/01/04 07:07:36;;;;;;;7.25;6.55;;;6.90;99.90;;;;;;5033127;28;20655;-86
2021/01/04 07:10:26;;;;;;;6.45;5.90;;;7.00;99.90;;;;;;5017843;28;20195;-86
2021/01/04 07:13:20;;;;;;;11.88;6.70;;;6.80;99.90;;;;;;5033133;28;20247;-86
2021/01/04 07:15:58;;;;;;;6.50;5.65;;;6.90;99.90;;;;;;5032752;28;20605;-86
2021/01/04 07:18:40;;;;;;;6.72;6.03;;;6.80;99.90;;;;;;5033125;28;20210;-86
2021/01/04 07:21:35;;;;;;;6.38;5.78;;;6.80;99.90;;;;;;5033207;28;20545;-86
2021/01/04 07:24:16;;;;;;;6.70;6.05;;;6.90;99.90;;;;;;4998611;28;20207;-86
2021/01/04 07:26:59;;;;;;;6.82;6.22;;;6.90;99.90;;;;;;5032848;28;20195;-85
2021/01/04 07:29:42;;;;;;;6.38;5.78;;;7.00;99.90;;;;;;5033116;28;20203;-86
2021/01/04 07:32:12;;;;;;;5.72;5.22;;;6.90;99.90;;;;;;5032633;28;20223;-86
2021/01/04 07:34:42;;;;;;;7.10;6.25;;;7.00;99.90;;;;;;5032794;28;20713;-85
2021/01/04 07:37:27;;;;;;;5.50;5.00;;;7.10;99.90;;;;;;5032882;28;20196;-86
2021/01/04 07:40:02;;;;;;;6.43;5.47;;;7.10;99.90;;;;;;5032588;28;20196;-85
2021/01/04 07:42:52;;;;;;;6.90;6.20;;;7.10;99.90;;;;;;5032903;28;20195;-86
2021/01/04 07:45:32;;;;;;;6.50;5.90;;;7.10;99.90;;;;;;5033038;28;20204;-85
2021/01/04 07:48:34;;;;;;;6.65;6.05;;;7.20;99.90;;;;;;5032880;28;20199;-85
2021/01/04 07:51:30;;;;;;;6.65;6.05;;;7.20;99.90;;;;;;5033094;28;20206;-85
2021/01/04 07:54:35;;;;;;;7.18;6.47;;;7.20;99.90;;;;;;5036511;28;20250;-85
2021/01/04 07:57:50;;;;;;;6.15;5.55;;;7.10;99.90;;;;;;5036813;28;20259;-86
2021/01/04 08:00:46;;;;;;;5.80;5.20;;;7.10;99.90;;;;;;5036905;28;20195;-85
2021/01/04 08:03:45;;;;;;;7.70;6.82;;;7.10;99.90;;;;;;5034773;28;20196;-85
2021/01/04 08:06:34;;;;;;;7.20;6.28;;;7.10;99.90;;;;;;5036352;28;20226;-85
2021/01/04 08:09:09;;;;;;;6.30;5.60;;;7.00;99.90;;;;;;5036315;28;20202;-85
2021/01/04 08:12:11;;;;;;;6.20;5.60;;;7.10;99.90;;;;;;5036296;28;20198;-85
2021/01/04 08:15:01;;;;;;;6.28;5.20;;;6.90;99.90;;;;;;5036121;28;20223;-85
2021/01/04 08:17:38;;;;;;;6.72;6.13;;;6.90;99.90;;;;;;5036224;28;20196;-85
2021/01/04 08:20:07;;;;;;;6.78;6.18;;;6.80;99.90;;;;;;5036297;28;20568;-85
2021/01/04 08:22:58;;;;;;;7.68;6.88;;;6.90;99.90;;;;;;5035913;28;20199;-86
2021/01/04 08:25:40;;;;;;;6.65;6.05;;;7.00;99.90;;;;;;5036092;28;20211;-86
2021/01/04 08:28:33;;;;;;;5.82;5.32;;;7.00;99.90;;;;;;5036246;28;20261;-85
2021/01/04 08:31:06;;;;;;;7.30;5.70;;;7.00;99.90;;;;;;5036107;28;20199;-86
2021/01/04 08:33:44;;;;;;;7.32;6.45;;;6.90;99.90;;;;;;5034940;28;20236;-83
2021/01/04 08:36:26;;;;;;;6.10;5.50;;;6.90;99.90;;;;;;5021336;28;20204;-83
2021/01/04 08:39:08;;;;;;;6.30;5.70;;;6.90;99.90;;;;;;5026868;28;20250;-84
2021/01/04 08:41:35;;;;;;;6.30;5.68;;;7.00;99.90;;;;;;5031584;28;20200;-83
2021/01/04 08:44:12;;;;;;;7.13;5.80;;;7.10;99.90;;;;;;5035707;28;20564;-83
2021/01/04 08:46:39;;;;;;;8.05;6.78;;;7.10;99.90;;;;;;5035814;28;20237;-84
2021/01/04 08:49:22;;;;;;;6.63;5.97;;;7.00;99.90;;;;;;5035719;28;20556;-84
2021/01/04 08:51:51;;;;;;;6.70;5.88;;;7.00;99.90;;;;;;5034745;28;20199;-87
2021/01/04 08:54:26;;;;;;;7.25;6.32;;;7.00;99.90;;;;;;5035859;28;20223;-85
2021/01/04 08:57:05;;;;;;;9.13;7.10;;;7.00;99.90;;;;;;5035847;28;20195;-84
2021/01/04 08:59:33;;;;;;;7.65;6.60;;;7.00;99.90;;;;;;5035264;28;20222;-84
2021/01/04 09:02:06;;;;;;;6.10;5.57;;;7.00;99.90;;;;;;5035390;28;20202;-85
2021/01/04 09:04:35;;;;;;;7.10;5.93;;;6.90;99.90;;;;;;5034324;28;20224;-85
2021/01/04 09:07:09;;;;;;;6.82;6.13;;;6.80;99.90;;;;;;5035396;28;20655;-84
2021/01/04 09:09:41;;;;;;;7.63;6.65;;;6.50;99.90;;;;;;5035246;28;20249;-84
2021/01/04 09:12:17;;;;;;;7.50;6.22;;;6.70;99.90;;;;;;5035248;28;20195;-84
2021/01/04 09:14:50;;;;;;;7.30;6.20;;;6.70;99.90;;;;;;5035409;28;20304;-84
2021/01/04 09:17:25;;;;;;;8.15;6.60;;;6.60;99.90;;;;;;5025442;28;20664;-84
2021/01/04 09:20:04;;;;;;;8.63;7.20;;;6.80;99.90;;;;;;5025448;28;20639;-84
2021/01/04 09:22:30;;;;;;;6.07;5.47;;;6.60;99.90;;;;;;5025813;28;20196;-84
2021/01/04 09:24:58;;;;;;;8.57;7.10;;;6.70;99.90;;;;;;5023194;28;20219;-84
2021/01/04 09:27:30;;;;;;;7.93;6.97;;;6.80;99.90;;;;;;5023788;28;20195;-84
2021/01/04 09:30:00;;;;;;;9.68;7.95;;;6.90;99.90;;;;;;5023650;28;20192;-85
2021/01/04 09:32:31;;;;;;;8.38;6.63;;;6.90;99.90;;;;;;5025845;28;20721;-84
2021/01/04 09:34:58;;;;;;;8.48;7.15;;;6.90;99.90;;;;;;5026470;28;20216;-85
2021/01/04 09:37:26;;;;;;;9.23;7.13;;;7.00;99.90;;;;;;5028709;28;20208;-84
2021/01/04 09:39:58;;;;;;;11.60;8.10;;;7.00;99.90;;;;;;5031551;28;20199;-84
2021/01/04 09:42:28;;;;;;;8.85;7.63;;;6.90;99.90;;;;;;5019966;28;20193;-83
2021/01/04 09:44:55;;;;;;;9.88;7.10;;;6.90;99.90;;;;;;5016068;28;20192;-84
2021/01/04 09:47:29;;;;;;;8.23;6.28;;;6.90;99.90;;;;;;5034223;28;20218;-84
2021/01/04 09:50:00;;;;;;;9.35;7.20;;;7.00;99.90;;;;;;5034661;28;20241;-85
2021/01/04 09:52:31;;;;;;;9.05;6.75;;;7.00;99.90;;;;;;5034559;28;20199;-84
2021/01/04 09:55:02;;;;;;;9.30;6.88;;;7.00;99.90;;;;;;5034515;28;20273;-84
2021/01/04 09:57:32;;;;;;;10.10;7.93;;;7.00;99.90;;;;;;5034350;28;20200;-84
2021/01/04 09:59:58;;;;;;;11.60;8.00;;;7.00;99.90;;;;;;5034378;28;20195;-84
2021/01/04 10:02:28;;;;;;;8.80;7.90;;;7.10;99.90;;;;;;5033978;28;20226;-84
2021/01/04 10:05:03;;;;;;;10.50;8.10;;;7.00;99.90;;;;;;5034207;28;20578;-84
2021/01/04 10:07:30;;;;;;;10.65;8.98;;;6.90;99.90;;;;;;5034218;28;20195;-85
2021/01/04 10:09:56;;;;;;;8.90;7.70;;;7.00;99.90;;;;;;5034297;28;20246;-85
2021/01/04 10:12:26;;;;;;;10.43;8.23;;;6.90;99.90;;;;;;5034362;28;20640;-85
2021/01/04 10:14:56;;;;;;;11.13;8.45;;;6.80;99.90;;;;;;5034005;28;20227;-85
2021/01/04 10:17:27;;;;;;;11.40;9.73;;;6.80;99.90;;;;;;5034374;28;20187;-85
2021/01/04 10:19:57;;;;;;;10.15;8.80;;;6.80;99.90;;;;;;5034094;28;20200;-85
2021/01/04 10:22:29;;;;;;;9.80;7.90;;;6.80;99.90;;;;;;5034045;28;20230;-85
2021/01/04 10:24:58;;;;;;;11.35;8.45;;;6.90;99.90;;;;;;5034301;28;20270;-85
2021/01/04 10:27:28;;;;;;;10.63;8.80;;;6.90;99.90;;;;;;5034073;28;20231;-84
2021/01/04 10:29:57;;;;;;;14.18;10.88;;;6.80;99.90;;;;;;5034516;28;20195;-85
2021/01/04 10:32:26;;;;;;;13.23;9.80;;;6.90;99.90;;;;;;5033705;28;20249;-85
2021/01/04 10:34:54;;;;;;;13.13;10.05;;;6.70;99.90;;;;;;5033968;28;20231;-85
2021/01/04 10:37:36;;;;;;;16.05;11.10;;;6.90;99.90;;;;;;5033944;28;20204;-84
2021/01/04 10:40:06;;;;;;;13.00;11.18;;;6.90;99.90;;;;;;5033760;28;20184;-85
2021/01/04 10:42:33;;;;;;;14.52;10.40;;;7.10;99.90;;;;;;5033860;28;20195;-85
2021/01/04 10:45:08;;;;;;;10.98;9.27;;;7.20;99.90;;;;;;5033933;28;20195;-85
2021/01/04 10:47:44;;;;;;;11.73;9.93;;;7.00;99.90;;;;;;5033615;28;20215;-85
2021/01/04 10:50:15;;;;;;;11.68;9.88;;;7.00;99.90;;;;;;5034062;28;20880;-85
2021/01/04 10:52:41;;;;;;;14.40;9.63;;;7.00;99.90;;;;;;5033460;28;20203;-85
2021/01/04 10:55:20;;;;;;;13.35;10.05;;;7.00;99.90;;;;;;5033584;28;20227;-85
2021/01/04 10:57:50;;;;;;;14.98;11.20;;;7.20;99.90;;;;;;5016370;28;20192;-85
2021/01/04 11:00:22;;;;;;;13.43;10.50;;;7.20;99.90;;;;;;5014062;28;20180;-85
2021/01/04 11:02:51;;;;;;;12.27;10.23;;;7.20;99.90;;;;;;5013999;28;20188;-85
2021/01/04 11:05:20;;;;;;;12.77;9.90;;;7.30;99.90;;;;;;5013631;28;20216;-85
2021/01/04 11:07:47;;;;;;;10.93;9.35;;;7.40;99.90;;;;;;5013868;28;20246;-85
2021/01/04 11:10:22;;;;;;;11.00;9.15;;;7.40;99.90;;;;;;5013715;28;20200;-85
2021/01/04 11:12:50;;;;;;;14.55;10.73;;;7.40;99.90;;;;;;5014145;28;20192;-85
2021/01/04 11:15:28;;;;;;;11.75;10.10;;;7.50;99.90;;;;;;5013558;28;20220;-85
2021/01/04 11:18:07;;;;;;;10.20;8.40;;;7.50;99.90;;;;;;5013636;28;20258;-85
2021/01/04 11:20:34;;;;;;;10.90;8.40;;;7.50;99.90;;;;;;5013526;28;20200;-85
2021/01/04 11:23:04;;;;;;;11.18;8.48;;;7.50;99.90;;;;;;5013450;28;20200;-85
2021/01/04 11:25:31;;;;;;;11.88;8.23;;;7.50;99.90;;;;;;5013617;28;20200;-85
2021/01/04 11:27:57;;;;;;;9.68;8.68;;;7.50;99.90;;;;;;5016702;28;20207;-85
2021/01/04 11:30:24;;;;;;;10.70;9.05;;;7.60;99.90;;;;;;5017707;28;20210;-85
2021/01/04 11:32:51;;;;;;;10.38;8.73;;;7.60;99.90;;;;;;5025836;28;20804;-85
2021/01/04 11:35:18;;;;;;;11.02;9.32;;;7.40;99.90;;;;;;5037213;28;20231;-85
2021/01/04 11:37:45;;;;;;;10.15;8.80;;;7.40;99.90;;;;;;5036926;28;20206;-79
2021/01/04 11:40:12;;;;;;;10.20;8.63;;;7.40;99.90;;;;;;5036932;28;20240;-81
2021/01/04 11:42:39;;;;;;;9.18;7.80;;;7.40;99.90;;;;;;5036725;28;20204;-79
2021/01/04 11:45:08;;;;;;;10.35;7.80;;;7.50;99.90;;;;;;5036871;28;20196;-79
2021/01/04 11:47:35;;;;;;;9.90;8.40;;;7.50;99.90;;;;;;5036405;28;20204;-79
2021/01/04 11:50:05;;;;;;;13.23;9.18;;;7.60;99.90;;;;;;5036778;28;20546;-80
2021/01/04 11:52:32;;;;;;;8.52;7.55;;;7.60;99.90;;;;;;5036776;28;20250;-79
2021/01/04 11:54:58;;;;;;;9.15;7.88;;;7.60;99.90;;;;;;5027341;28;20224;-80
2021/01/04 11:57:24;;;;;;;8.05;7.22;;;7.60;99.90;;;;;;5016844;28;20196;-83
2021/01/04 11:59:51;;;;;;;10.82;7.97;;;7.60;99.90;;;;;;5016887;28;20262;-80
2021/01/04 12:02:17;;;;;;;11.35;8.85;;;7.70;99.90;;;;;;5018615;28;20193;-79
2021/01/04 12:04:44;;;;;;;8.55;7.68;;;7.70;99.90;;;;;;5036409;28;20227;-80
2021/01/04 12:07:12;;;;;;;9.50;8.40;;;7.70;99.90;;;;;;5036383;28;20651;-79
2021/01/04 12:09:38;;;;;;;10.40;8.75;;;7.70;99.90;;;;;;5036400;28;20202;-79
2021/01/04 12:12:05;;;;;;;7.82;7.00;;;7.70;99.90;;;;;;5036322;28;20196;-79
2021/01/04 12:14:32;;;;;;;8.52;7.43;;;7.70;99.90;;;;;;5036159;28;20223;-79
2021/01/04 12:17:03;;;;;;;9.98;8.07;;;7.70;99.90;;;;;;5036180;28;20717;-79
2021/01/04 12:19:30;;;;;;;9.85;7.75;;;7.60;99.90;;;;;;5036031;28;20199;-79
2021/01/04 12:22:00;;;;;;;10.45;8.65;;;7.60;99.90;;;;;;5036064;28;20200;-79
2021/01/04 12:24:27;;;;;;;8.30;7.50;;;7.70;99.90;;;;;;5036044;28;20254;-79
2021/01/04 12:26:53;;;;;;;10.38;6.90;;;7.80;99.90;;;;;;5036104;28;20196;-79
2021/01/04 12:29:20;;;;;;;10.35;8.00;;;7.70;99.90;;;;;;5036089;28;20291;-79
2021/01/04 12:31:46;;;;;;;11.00;7.70;;;7.70;99.90;;;;;;5035715;28;20681;-78
2021/01/04 12:34:12;;;;;;;8.40;6.63;;;7.70;99.90;;;;;;5035778;28;20310;-78
2021/01/04 12:36:38;;;;;;;8.52;7.38;;;7.80;99.90;;;;;;5035974;28;20663;-84
2021/01/04 12:39:06;;;;;;;9.45;7.85;;;7.80;99.90;;;;;;5035841;28;20218;-80
2021/01/04 12:41:38;;;;;;;7.43;6.70;;;7.80;99.90;;;;;;5035764;28;20192;-79
2021/01/04 12:44:04;;;;;;;9.70;8.70;;;7.70;99.90;;;;;;5035541;28;20223;-79
2021/01/04 12:46:31;;;;;;;10.05;9.05;;;7.70;99.90;;;;;;5034939;28;20195;-79
2021/01/04 12:48:57;;;;;;;10.40;8.20;;;7.80;99.90;;;;;;5035521;28;20192;-82
2021/01/04 12:51:23;;;;;;;8.43;7.28;;;7.80;99.90;;;;;;5034620;28;20212;-79
2021/01/04 12:53:50;;;;;;;9.65;7.95;;;7.80;99.90;;;;;;5035454;28;20269;-79
2021/01/04 12:56:17;;;;;;;9.48;8.48;;;7.80;99.90;;;;;;5035334;28;20721;-79
2021/01/04 12:58:45;;;;;;;10.63;9.10;;;7.80;99.90;;;;;;5035210;28;20566;-79
2021/01/04 13:01:14;;;;;;;8.80;7.40;;;7.80;99.90;;;;;;5035407;28;20227;-79
2021/01/04 13:03:41;;;;;;;8.25;7.03;;;7.80;99.90;;;;;;5035298;28;20625;-78
2021/01/04 13:06:07;;;;;;;8.90;7.97;;;7.80;99.90;;;;;;5035183;28;20196;-79
2021/01/04 13:08:34;;;;;;;9.13;8.20;;;7.70;99.90;;;;;;5035316;28;20693;-78
2021/01/04 13:11:01;;;;;;;10.63;9.00;;;7.70;99.90;;;;;;5034844;28;20195;-79
2021/01/04 13:13:27;;;;;;;11.82;7.70;;;7.70;99.90;;;;;;5035364;28;20682;-80
2021/01/04 13:15:54;;;;;;;8.80;7.70;;;7.70;99.90;;;;;;5035071;28;20635;-79
2021/01/04 13:18:20;;;;;;;7.88;7.13;;;7.70;99.90;;;;;;5034759;28;20192;-79
2021/01/04 13:20:47;;;;;;;9.20;8.30;;;7.70;99.90;;;;;;5034731;28;20203;-78
2021/01/04 13:23:13;;;;;;;7.90;6.97;;;7.80;99.90;;;;;;5035027;28;20210;-79
2021/01/04 13:25:39;;;;;;;8.45;7.43;;;7.70;99.90;;;;;;5034822;28;20199;-78
2021/01/04 13:28:05;;;;;;;8.18;7.07;;;7.70;99.90;;;;;;5034859;28;20214;-80
2021/01/04 13:30:32;;;;;;;7.20;6.60;;;7.70;99.90;;;;;;5034619;28;20602;-79
2021/01/04 13:32:59;;;;;;;8.23;7.32;;;7.60;99.90;;;;;;5034344;28;20629;-79
2021/01/04 13:35:25;;;;;;;6.85;6.22;;;7.60;99.90;;;;;;5034711;28;20227;-81